Time;durP1;ratioP1;P1;durP2;ratioP2;P2;SDS_P1;SDS_P2;PMS_P1;PMS_P2;Temp;Humidity;BMP_temperature;BMP_pressure;BME280_temperature;BME280_humidity;BME280_pressure;Samples;Min_cycle;Max_cycle;Signal;HPM_P1;HPM_P2
2023/07/13 00:01:54;;;;;;;4.75;0.55;;;;;;;19.47;74.23;101008.84;7360703;19;20025;-61
2023/07/13 00:04:25;;;;;;;5.60;0.65;;;;;;;19.46;74.37;101001.03;7361024;19;20093;-61
2023/07/13 00:06:53;;;;;;;2.65;0.60;;;;;;;19.46;74.07;101006.38;7362794;19;20022;-61
2023/07/13 00:09:22;;;;;;;4.82;0.77;;;;;;;19.45;73.88;101004.75;7360641;19;20412;-62
2023/07/13 00:11:55;;;;;;;3.08;0.68;;;;;;;19.46;74.00;101003.72;7359585;19;20021;-61
2023/07/13 00:14:24;;;;;;;2.80;0.50;;;;;;;19.43;73.24;101012.13;7358573;19;20033;-61
2023/07/13 00:16:51;;;;;;;6.00;0.60;;;;;;;19.40;73.18;101013.34;7361636;19;20663;-65
2023/07/13 00:19:19;;;;;;;3.50;0.50;;;;;;;19.36;73.26;101009.44;7362480;19;20064;-61
2023/07/13 00:21:46;;;;;;;8.35;0.60;;;;;;;19.33;73.25;101006.38;7362532;19;20491;-62
2023/07/13 00:24:23;;;;;;;3.45;0.70;;;;;;;19.23;73.68;101007.59;7362214;19;20043;-62
2023/07/13 00:26:51;;;;;;;5.63;0.68;;;;;;;19.22;74.56;101011.28;7362924;19;20014;-62
2023/07/13 00:29:20;;;;;;;4.63;1.00;;;;;;;19.17;74.48;101002.25;7359488;19;20017;-63
2023/07/13 00:31:48;;;;;;;7.63;0.80;;;;;;;19.17;74.37;101002.25;7360329;19;20106;-61
2023/07/13 00:34:15;;;;;;;5.18;0.70;;;;;;;19.16;74.53;101013.94;7357875;19;20063;-61
2023/07/13 00:36:42;;;;;;;3.13;0.65;;;;;;;19.13;74.51;101006.38;7364719;19;20037;-61
2023/07/13 00:39:09;;;;;;;3.65;0.80;;;;;;;19.13;75.02;101009.84;7361297;19;20025;-60
2023/07/13 00:41:37;;;;;;;7.97;0.75;;;;;;;19.12;74.63;101008.22;7362213;19;20041;-60
2023/07/13 00:44:14;;;;;;;4.40;0.70;;;;;;;19.13;74.60;101015.19;7357273;19;20038;-61
2023/07/13 00:46:41;;;;;;;4.63;0.75;;;;;;;19.15;74.64;101005.13;7361195;19;20404;-61
2023/07/13 00:49:14;;;;;;;3.47;0.60;;;;;;;19.17;74.11;101004.94;7358334;19;20034;-62
2023/07/13 00:51:47;;;;;;;8.30;0.77;;;;;;;19.10;73.96;101014.75;7361556;19;20019;-61
2023/07/13 00:54:17;;;;;;;;;;;;;;;19.09;74.38;101005.13;7363459;19;20026;-62
2023/07/13 00:56:46;;;;;;;6.30;0.73;;;;;;;19.02;73.90;101010.47;7363710;19;19922;-62
2023/07/13 00:59:16;;;;;;;3.47;0.70;;;;;;;19.02;74.28;101006.97;7361669;19;20930;-61
2023/07/13 01:01:43;;;;;;;2.92;0.65;;;;;;;19.00;73.60;101009.81;7362134;19;20035;-62
2023/07/13 01:04:10;;;;;;;2.60;0.70;;;;;;;18.99;74.39;101005.53;7358581;19;20018;-61
2023/07/13 01:06:39;;;;;;;6.38;0.60;;;;;;;19.00;74.25;101009.81;7359031;19;20518;-61
2023/07/13 01:09:08;;;;;;;2.42;0.50;;;;;;;18.94;74.31;101008.00;7361029;19;20026;-62
2023/07/13 01:11:35;;;;;;;2.97;0.63;;;;;;;18.89;73.60;101015.78;7360785;19;20014;-62
2023/07/13 01:14:03;;;;;;;3.88;0.60;;;;;;;18.84;73.99;101007.56;7358519;19;20015;-62
2023/07/13 01:16:32;;;;;;;3.50;0.70;;;;;;;18.80;74.27;101003.63;7357077;19;20404;-62
2023/07/13 01:19:01;;;;;;;5.25;0.80;;;;;;;18.85;74.06;101009.19;7359183;19;21124;-62
2023/07/13 01:21:31;;;;;;;2.20;0.60;;;;;;;18.87;74.57;101006.31;7357287;19;20672;-62
2023/07/13 01:23:59;;;;;;;7.57;1.40;;;;;;;18.89;74.21;101015.78;7356478;19;20018;-62
2023/07/13 01:26:26;;;;;;;4.47;0.70;;;;;;;18.89;74.33;101007.78;7358955;19;20038;-62
2023/07/13 01:28:56;;;;;;;3.13;0.60;;;;;;;18.90;74.05;101009.41;7361886;19;20040;-61
2023/07/13 01:31:23;;;;;;;3.83;0.70;;;;;;;18.93;74.83;101010.84;7362783;19;20602;-62
2023/07/13 01:33:52;;;;;;;3.47;0.60;;;;;;;18.93;74.82;101010.84;7355952;19;20057;-62
2023/07/13 01:36:21;;;;;;;3.53;0.73;;;;;;;18.87;75.27;101011.66;7360096;19;20089;-61
2023/07/13 01:38:48;;;;;;;3.72;0.70;;;;;;;18.76;75.40;101007.75;7355307;19;20033;-60
2023/07/13 01:41:15;;;;;;;4.60;0.60;;;;;;;18.71;75.64;101012.84;7361033;19;20038;-62
2023/07/13 01:43:42;;;;;;;5.10;0.85;;;;;;;18.66;75.89;101013.47;7359061;19;20019;-62
2023/07/13 01:46:10;;;;;;;4.88;0.70;;;;;;;18.66;76.21;101009.97;7358773;19;20018;-62
2023/07/13 01:48:49;;;;;;;5.90;0.90;;;;;;;18.63;76.87;100997.88;7357973;19;20653;-63
2023/07/13 01:51:18;;;;;;;5.30;0.90;;;;;;;18.62;76.38;101008.72;7358347;19;20478;-62
2023/07/13 01:53:45;;;;;;;7.55;0.70;;;;;;;18.59;76.82;101001.94;7357444;19;20021;-60
2023/07/13 01:56:12;;;;;;;5.03;0.90;;;;;;;18.59;78.20;101001.94;7356708;19;20011;-62
2023/07/13 01:58:40;;;;;;;4.45;0.57;;;;;;;18.56;77.73;101002.34;7361371;19;20025;-61
2023/07/13 02:01:07;;;;;;;5.30;0.60;;;;;;;18.53;77.31;101000.06;7357884;19;20022;-61
2023/07/13 02:03:34;;;;;;;3.13;0.70;;;;;;;18.49;76.99;101000.69;7357015;19;20033;-61
2023/07/13 02:06:01;;;;;;;5.07;0.70;;;;;;;18.46;77.34;101003.72;7358863;19;20526;-61
2023/07/13 02:08:29;;;;;;;4.80;0.80;;;;;;;18.46;77.30;100990.41;7358507;19;20673;-62
2023/07/13 02:10:57;;;;;;;4.03;0.88;;;;;;;18.45;77.65;100999.41;7361229;19;20042;-62
2023/07/13 02:13:24;;;;;;;4.13;0.82;;;;;;;18.38;77.36;100991.41;7359630;19;20018;-61
2023/07/13 02:15:51;;;;;;;5.55;0.70;;;;;;;18.35;77.89;100997.94;7358063;19;20018;-62
2023/07/13 02:18:19;;;;;;;4.45;0.93;;;;;;;18.37;77.81;100989.75;7355411;19;20035;-62
2023/07/13 02:20:46;;;;;;;3.88;0.60;;;;;;;18.34;77.59;100996.28;7360391;19;20053;-62
2023/07/13 02:23:13;;;;;;;3.05;0.60;;;;;;;18.32;77.95;100998.34;7355963;19;20056;-61
2023/07/13 02:25:40;;;;;;;5.00;0.77;;;;;;;18.27;77.83;100989.31;7356639;19;20029;-62
2023/07/13 02:28:08;;;;;;;2.80;0.75;;;;;;;18.20;77.80;100989.28;7361508;19;20014;-62
2023/07/13 02:30:35;;;;;;;4.70;0.90;;;;;;;18.13;78.61;100993.78;7360553;19;20378;-62
2023/07/13 02:33:03;;;;;;;4.93;0.60;;;;;;;18.16;78.92;100996.03;7356921;19;20867;-61
2023/07/13 02:35:31;;;;;;;5.97;0.60;;;;;;;18.21;78.65;100996.25;7357105;19;20023;-62
2023/07/13 02:37:58;;;;;;;5.20;0.60;;;;;;;18.22;78.36;100989.09;7358455;19;20688;-62
2023/07/13 02:40:26;;;;;;;4.13;0.73;;;;;;;18.18;78.28;100986.00;7358200;19;20044;-63
2023/07/13 02:42:53;;;;;;;3.65;1.00;;;;;;;18.16;78.68;100997.88;7358958;19;20033;-63
2023/07/13 02:45:20;;;;;;;5.05;0.60;;;;;;;18.17;79.30;100995.00;7356566;19;20162;-60
2023/07/13 02:47:47;;;;;;;3.90;0.60;;;;;;;18.16;78.75;100996.03;7359971;19;20019;-62
2023/07/13 02:50:15;;;;;;;4.40;0.70;;;;;;;18.16;78.75;101000.53;7359375;19;20029;-60
2023/07/13 02:52:42;;;;;;;5.65;0.70;;;;;;;18.10;78.81;100999.47;7360650;19;20589;-61
2023/07/13 02:55:10;;;;;;;8.48;0.70;;;;;;;18.10;78.80;100996.00;7357895;19;20022;-61
2023/07/13 02:57:37;;;;;;;2.70;0.70;;;;;;;18.10;79.25;101001.31;7355201;19;20495;-61
2023/07/13 03:00:05;;;;;;;4.18;0.70;;;;;;;18.08;78.93;101009.50;7356138;19;20023;-62
2023/07/13 03:02:33;;;;;;;4.07;0.60;;;;;;;18.03;80.19;101006.59;7359125;19;20090;-62
2023/07/13 03:05:01;;;;;;;6.03;0.88;;;;;;;18.04;80.26;100999.44;7353813;19;20050;-61
2023/07/13 03:07:28;;;;;;;4.15;0.90;;;;;;;18.01;79.91;101000.66;7364980;19;20018;-61
2023/07/13 03:09:57;;;;;;;3.05;0.65;;;;;;;18.00;79.82;101009.66;7366178;19;20628;-60
2023/07/13 03:12:24;;;;;;;5.80;0.60;;;;;;;17.96;80.47;101005.75;7367130;19;21912;-61
2023/07/13 03:14:51;;;;;;;5.93;1.02;;;;;;;17.95;80.61;101004.13;7367395;19;21583;-63
2023/07/13 03:17:18;;;;;;;3.22;1.05;;;;;;;17.96;81.00;101003.09;7362136;19;20022;-62
2023/07/13 03:19:49;;;;;;;4.82;0.63;;;;;;;17.96;81.20;100997.78;7363869;19;21650;-61
2023/07/13 03:22:17;;;;;;;6.03;0.73;;;;;;;17.98;80.92;101001.03;7365387;19;20018;-62
2023/07/13 03:24:46;;;;;;;5.93;0.90;;;;;;;17.97;80.73;101004.75;7368593;19;20503;-62
2023/07/13 03:27:13;;;;;;;5.57;0.77;;;;;;;18.00;80.87;101011.50;7364426;19;20565;-61
2023/07/13 03:29:40;;;;;;;5.47;0.60;;;;;;;17.98;80.74;101008.25;7365054;19;20934;-62
2023/07/13 03:32:08;;;;;;;5.30;0.85;;;;;;;17.95;81.16;101015.59;7363274;19;20018;-62
2023/07/13 03:34:35;;;;;;;7.88;0.68;;;;;;;17.94;81.35;101011.28;7365169;19;20035;-62
2023/07/13 03:37:03;;;;;;;4.25;0.68;;;;;;;17.88;80.96;101013.88;7364936;19;20011;-62
2023/07/13 03:39:31;;;;;;;7.22;0.90;;;;;;;17.83;81.31;101018.97;7363554;19;20014;-61
2023/07/13 03:41:58;;;;;;;4.82;1.10;;;;;;;17.80;81.64;101025.53;7365332;19;20023;-62
2023/07/13 03:44:25;;;;;;;5.40;0.70;;;;;;;17.80;81.78;101022.88;7361889;19;20014;-62
2023/07/13 03:46:52;;;;;;;3.95;0.57;;;;;;;17.77;81.93;101025.09;7360479;19;20018;-63
2023/07/13 03:49:19;;;;;;;7.25;0.93;;;;;;;17.79;82.09;101023.06;7360810;19;20865;-62
2023/07/13 03:51:47;;;;;;;4.25;0.75;;;;;;;17.82;82.08;101020.84;7365397;19;20018;-61
2023/07/13 03:54:18;;;;;;;5.13;0.93;;;;;;;17.78;81.65;101022.22;7362963;19;20014;-62
2023/07/13 03:56:45;;;;;;;5.95;0.70;;;;;;;17.74;81.60;101022.81;7363409;19;20015;-62
2023/07/13 03:59:13;;;;;;;5.57;0.68;;;;;;;17.71;81.78;101026.72;7365888;19;20018;-61
2023/07/13 04:01:40;;;;;;;4.45;0.88;;;;;;;17.73;82.35;101024.66;7357066;19;20974;-62
2023/07/13 04:04:07;;;;;;;4.75;0.80;;;;;;;17.76;82.08;101024.28;7360521;19;20022;-61
2023/07/13 04:06:34;;;;;;;5.85;0.85;;;;;;;17.74;81.93;101028.97;7363968;19;21833;-61
2023/07/13 04:09:05;;;;;;;2.92;0.70;;;;;;;17.75;81.74;101032.47;7363460;19;20682;-61
2023/07/13 04:11:33;;;;;;;4.78;0.68;;;;;;;17.78;81.49;101032.06;7360632;19;20439;-62
2023/07/13 04:14:00;;;;;;;4.32;0.90;;;;;;;17.76;81.93;101039.44;7364468;19;20011;-62
2023/07/13 04:16:28;;;;;;;5.25;0.70;;;;;;;17.72;82.01;101032.84;7360976;19;20023;-61
2023/07/13 04:18:59;;;;;;;3.78;0.70;;;;;;;17.71;82.00;101042.69;7361900;19;20010;-62
2023/07/13 04:21:30;;;;;;;7.32;0.90;;;;;;;17.70;81.89;101037.53;7363107;19;20014;-62
2023/07/13 04:23:58;;;;;;;2.20;0.60;;;;;;;17.67;81.57;101044.09;7359152;19;20440;-62
2023/07/13 04:26:25;;;;;;;2.60;0.73;;;;;;;17.66;81.69;101044.28;7359262;19;20018;-62
2023/07/13 04:28:52;;;;;;;4.03;0.52;;;;;;;17.65;82.02;101038.13;7364835;19;20011;-61
2023/07/13 04:31:20;;;;;;;3.90;0.50;;;;;;;17.65;82.21;101039.97;7360784;19;20022;-61
2023/07/13 04:33:49;;;;;;;5.72;0.60;;;;;;;17.61;81.80;101047.50;7360668;19;20014;-61
2023/07/13 04:36:16;;;;;;;2.78;0.60;;;;;;;17.62;81.85;101051.84;7362103;19;20803;-61
2023/07/13 04:38:44;;;;;;;6.47;0.70;;;;;;;17.59;81.37;101046.88;7363926;19;20094;-61
2023/07/13 04:41:12;;;;;;;2.53;0.60;;;;;;;17.57;81.40;101051.56;7361721;19;21106;-63
2023/07/13 04:43:40;;;;;;;3.35;0.60;;;;;;;17.59;81.55;101056.66;7360874;19;20006;-62
2023/07/13 04:46:12;;;;;;;4.35;0.60;;;;;;;17.59;82.21;101054.84;7360319;19;20006;-63
2023/07/13 04:48:40;;;;;;;5.07;0.82;;;;;;;17.59;81.61;101059.31;7358055;19;21768;-60
2023/07/13 04:51:07;;;;;;;3.35;0.70;;;;;;;17.60;81.81;101061.00;7361967;19;20371;-63
2023/07/13 04:53:35;;;;;;;9.68;1.58;;;;;;;17.62;81.85;101059.00;7362116;19;20698;-62
2023/07/13 04:56:03;;;;;;;5.10;0.50;;;;;;;17.64;82.08;101065.75;7363140;19;20014;-61
2023/07/13 04:58:31;;;;;;;5.22;0.93;;;;;;;17.66;81.95;101069.06;7360676;19;20010;-61
2023/07/13 05:01:03;;;;;;;2.97;0.60;;;;;;;17.69;81.46;101057.19;7352539;19;20025;-61
2023/07/13 05:03:31;;;;;;;4.95;0.57;;;;;;;17.65;81.12;101061.25;7359076;19;20852;-61
2023/07/13 05:06:01;;;;;;;5.55;0.60;;;;;;;17.62;81.39;101064.31;7360935;19;20022;-63
2023/07/13 05:08:28;;;;;;;4.78;0.68;;;;;;;17.63;81.66;101069.41;7359255;19;20014;-62
2023/07/13 05:11:00;;;;;;;7.53;0.60;;;;;;;17.65;81.77;101063.91;7359981;19;20065;-62
2023/07/13 05:13:27;;;;;;;5.88;0.52;;;;;;;17.63;81.88;101064.09;7360184;19;20015;-61
2023/07/13 05:15:59;;;;;;;2.13;0.70;;;;;;;17.64;81.66;101070.25;7361722;19;20018;-61
2023/07/13 05:18:27;;;;;;;3.58;0.60;;;;;;;17.62;81.61;101065.13;7359908;19;20013;-61
2023/07/13 05:20:59;;;;;;;3.47;1.30;;;;;;;17.65;81.53;101066.56;7360177;19;20015;-61
2023/07/13 05:23:27;;;;;;;3.47;0.60;;;;;;;17.63;81.20;101074.75;7360201;19;21763;-61
2023/07/13 05:25:56;;;;;;;5.90;0.73;;;;;;;17.64;81.73;101079.06;7354804;19;20010;-62
2023/07/13 05:28:23;;;;;;;2.70;0.43;;;;;;;17.65;82.31;101080.72;7360122;19;21767;-61
2023/07/13 05:30:50;;;;;;;6.43;0.52;;;;;;;17.63;81.88;101077.41;7356941;19;20025;-62
2023/07/13 05:33:18;;;;;;;4.63;0.50;;;;;;;17.67;81.99;101083.19;7360158;19;20015;-62
2023/07/13 05:35:45;;;;;;;4.13;0.60;;;;;;;17.69;81.75;101087.28;7360159;19;20019;-62
2023/07/13 05:38:12;;;;;;;2.97;0.50;;;;;;;17.74;81.59;101082.19;7360940;19;20077;-62
2023/07/13 05:40:42;;;;;;;3.97;0.60;;;;;;;17.78;81.27;101087.97;7359900;19;20015;-61
2023/07/13 05:43:09;;;;;;;33.45;17.40;;;;;;;17.86;81.04;101086.00;7362123;19;20011;-63
2023/07/13 05:45:36;;;;;;;4.30;0.95;;;;;;;17.88;81.38;101094.59;7360143;19;20043;-62
2023/07/13 05:48:04;;;;;;;2.75;1.20;;;;;;;17.88;80.81;101088.44;7356143;19;21053;-62
2023/07/13 05:50:31;;;;;;;4.93;0.57;;;;;;;17.89;81.24;101100.75;7358641;19;20022;-61
2023/07/13 05:53:01;;;;;;;4.57;0.50;;;;;;;17.89;80.74;101101.56;7356758;19;20010;-62
2023/07/13 05:55:29;;;;;;;2.53;0.60;;;;;;;17.95;80.93;101105.31;7360896;19;20018;-61
2023/07/13 05:57:57;;;;;;;4.82;0.60;;;;;;;18.02;80.85;101108.84;7359112;19;20565;-61
2023/07/13 06:00:26;;;;;;;3.42;0.60;;;;;;;18.07;80.45;101114.41;7357915;19;20010;-62
2023/07/13 06:02:53;;;;;;;3.75;0.90;;;;;;;18.10;80.60;101115.84;7357571;19;20042;-61
2023/07/13 06:05:20;;;;;;;4.68;0.60;;;;;;;18.12;81.28;101121.81;7359802;19;20018;-61
2023/07/13 06:07:50;;;;;;;5.45;0.57;;;;;;;18.13;81.12;101118.97;7358455;19;21171;-61
2023/07/13 06:10:17;;;;;;;2.97;0.50;;;;;;;18.15;80.63;101116.91;7359459;19;20202;-61
2023/07/13 06:12:44;;;;;;;6.13;0.60;;;;;;;18.21;80.39;101131.28;7359303;19;20046;-61
2023/07/13 06:15:12;;;;;;;5.22;0.82;;;;;;;18.23;80.62;101135.44;7355598;19;20018;-61
2023/07/13 06:17:39;;;;;;;3.95;0.60;;;;;;;18.23;80.02;101130.09;7356002;19;20075;-62
2023/07/13 06:20:07;;;;;;;5.95;0.70;;;;;;;18.35;80.57;101141.00;7355114;19;21710;-61
2023/07/13 06:22:35;;;;;;;7.30;0.60;;;;;;;18.44;79.98;101142.50;7360670;19;20038;-62
2023/07/13 06:25:03;;;;;;;5.90;0.70;;;;;;;18.50;79.96;101136.38;7359039;19;20022;-62
2023/07/13 06:27:30;;;;;;;6.90;0.60;;;;;;;18.55;79.54;101139.31;7355142;19;20089;-61
2023/07/13 06:29:58;;;;;;;3.67;0.40;;;;;;;18.54;78.86;101145.66;7356939;19;20018;-62
2023/07/13 06:32:25;;;;;;;1.75;0.50;;;;;;;18.52;79.12;101137.03;7360095;19;20135;-61
2023/07/13 06:34:53;;;;;;;3.05;0.50;;;;;;;18.55;79.06;101139.31;7359111;19;20014;-61
2023/07/13 06:37:20;;;;;;;4.30;0.70;;;;;;;18.59;79.24;101137.09;7356695;19;20007;-63
2023/07/13 06:39:47;;;;;;;2.78;0.40;;;;;;;18.63;78.90;101138.34;7356414;19;20010;-64
2023/07/13 06:42:16;;;;;;;2.05;0.50;;;;;;;18.68;78.62;101151.91;7363705;19;20014;-62
2023/07/13 06:44:44;;;;;;;5.15;0.52;;;;;;;18.67;78.18;101145.75;7356317;19;20480;-62
2023/07/13 06:47:12;;;;;;;6.90;0.50;;;;;;;18.68;78.40;101144.72;7361376;19;20018;-63
2023/07/13 06:49:40;;;;;;;3.55;0.80;;;;;;;18.70;78.31;101145.34;7364359;19;20132;-61
2023/07/13 06:52:08;;;;;;;7.30;0.60;;;;;;;18.77;78.71;101151.53;7368062;19;20652;-62
2023/07/13 06:54:35;;;;;;;3.38;0.50;;;;;;;18.81;78.12;101149.28;7372021;19;20022;-61
2023/07/13 06:57:02;;;;;;;5.85;0.88;;;;;;;18.86;77.99;101146.84;7368646;19;20685;-62
2023/07/13 06:59:30;;;;;;;2.45;0.50;;;;;;;18.89;78.30;101157.13;7367818;19;21350;-64
2023/07/13 07:01:58;;;;;;;3.60;0.60;;;;;;;18.86;77.66;101154.03;7362241;19;20006;-62
2023/07/13 07:04:25;;;;;;;4.32;0.50;;;;;;;18.85;78.08;101153.19;7363770;19;20475;-62
2023/07/13 07:06:53;;;;;;;5.70;0.50;;;;;;;18.91;77.87;101160.41;7361751;19;20018;-62
2023/07/13 07:09:23;;;;;;;2.13;0.60;;;;;;;18.97;78.43;101159.63;7366148;19;20025;-62
2023/07/13 07:11:50;;;;;;;5.15;0.80;;;;;;;18.97;77.55;101172.13;7360611;19;20023;-63
2023/07/13 07:14:30;;;;;;;4.50;0.60;;;;;;;18.93;77.61;101174.38;7364090;19;20340;-63
2023/07/13 07:16:58;;;;;;;4.18;0.63;;;;;;;18.97;77.78;101172.94;7362813;19;20014;-62
2023/07/13 07:19:30;;;;;;;2.00;0.55;;;;;;;18.95;77.85;101164.31;7362974;19;20010;-62
2023/07/13 07:21:57;;;;;;;5.32;0.95;;;;;;;19.04;78.26;101170.31;7364146;19;20018;-63
2023/07/13 07:24:24;;;;;;;3.80;1.60;;;;;;;19.11;76.78;101171.16;7364383;19;20125;-62
2023/07/13 07:26:52;;;;;;;6.47;0.60;;;;;;;19.10;76.90;101177.50;7361028;19;20024;-63
2023/07/13 07:29:26;;;;;;;4.70;0.60;;;;;;;19.10;77.31;101180.16;7294866;19;20053;-62
2023/07/13 07:31:58;;;;;;;3.85;0.60;;;;;;;19.10;77.42;101185.50;7352198;19;20597;-63
2023/07/13 07:34:32;;;;;;;3.53;0.55;;;;;;;19.14;77.20;101176.94;7358010;19;20027;-61
2023/07/13 07:37:01;;;;;;;6.38;0.60;;;;;;;19.16;76.99;101184.72;7359873;19;20019;-61
2023/07/13 07:39:32;;;;;;;6.65;0.63;;;;;;;19.15;77.07;101183.88;7354799;19;20010;-63
2023/07/13 07:41:59;;;;;;;4.57;0.70;;;;;;;19.17;77.54;101189.03;7357927;19;20014;-61
2023/07/13 07:44:34;;;;;;;8.10;0.70;;;;;;;19.19;77.41;101193.16;7356233;19;20102;-62
2023/07/13 07:47:03;;;;;;;5.13;0.70;;;;;;;19.28;77.22;101191.13;7358275;19;20354;-62
2023/07/13 07:49:32;;;;;;;4.65;0.70;;;;;;;19.47;76.67;101200.22;7358556;19;20043;-61
2023/07/13 07:51:59;;;;;;;27.67;2.97;;;;;;;19.53;75.93;101191.41;7363897;19;20027;-63
2023/07/13 07:54:27;;;;;;;7.55;1.00;;;;;;;19.55;76.08;101197.41;7364975;19;20018;-65
2023/07/13 07:57:17;;;;;;;4.75;0.80;;;;;;;19.62;76.08;101206.22;7363115;19;20494;-62
2023/07/13 08:00:06;;;;;;;8.90;1.13;;;;;;;19.76;76.09;101210.53;7360290;19;20020;-62
2023/07/13 08:02:36;;;;;;;7.65;0.75;;;;;;;19.83;77.04;101200.72;7361644;19;20018;-62
2023/07/13 08:05:07;;;;;;;6.18;0.60;;;;;;;19.88;77.30;101208.09;7363995;19;20023;-62
2023/07/13 08:07:39;;;;;;;3.33;0.60;;;;;;;19.89;76.43;101209.75;7363485;19;20029;-61
2023/07/13 08:10:08;;;;;;;6.50;0.70;;;;;;;19.82;75.53;101209.75;7362426;19;20017;-61
2023/07/13 08:12:36;;;;;;;5.25;0.50;;;;;;;19.83;77.14;101214.06;7364326;19;20022;-62
2023/07/13 08:15:11;;;;;;;6.13;0.60;;;;;;;19.86;75.96;101202.16;7360408;19;20022;-63
2023/07/13 08:17:38;;;;;;;4.73;1.50;;;;;;;19.88;76.36;101205.44;7362827;19;20032;-61
2023/07/13 08:20:11;;;;;;;2.25;0.60;;;;;;;19.87;76.37;101204.59;7361416;19;20075;-62
2023/07/13 08:22:38;;;;;;;4.63;0.65;;;;;;;19.86;75.93;101204.84;7363281;19;20025;-63
2023/07/13 08:25:07;;;;;;;4.00;0.60;;;;;;;19.88;76.44;101208.09;7364977;19;20010;-63
2023/07/13 08:27:34;;;;;;;4.32;0.52;;;;;;;19.82;75.22;101200.91;7360970;19;20021;-62
2023/07/13 08:30:02;;;;;;;7.35;0.70;;;;;;;19.77;75.99;101201.50;7358525;19;21645;-63
2023/07/13 08:32:29;;;;;;;7.18;0.63;;;;;;;19.81;77.14;101194.75;7360112;19;20411;-66
2023/07/13 08:34:57;;;;;;;2.67;0.52;;;;;;;19.82;76.02;101200.91;7358260;19;20018;-62
2023/07/13 08:37:24;;;;;;;11.30;1.00;;;;;;;19.78;75.00;101199.66;7360533;19;20944;-61
2023/07/13 08:39:52;;;;;;;4.70;0.55;;;;;;;19.73;75.63;101202.13;7362201;19;20036;-62
2023/07/13 08:42:27;;;;;;;3.33;0.50;;;;;;;19.72;75.86;101211.16;7361748;19;20044;-62
2023/07/13 08:45:05;;;;;;;3.17;0.80;;;;;;;19.73;76.01;101208.28;7363114;19;20566;-62
2023/07/13 08:47:37;;;;;;;2.30;0.40;;;;;;;19.76;75.82;101202.53;7363516;19;20502;-62
2023/07/13 08:50:10;;;;;;;1.02;0.40;;;;;;;19.82;75.55;101200.91;7358542;19;20058;-62
2023/07/13 08:52:40;;;;;;;4.28;0.50;;;;;;;19.84;75.16;101202.34;7361693;19;20003;-61
2023/07/13 08:55:14;;;;;;;4.00;0.57;;;;;;;19.85;74.59;101201.34;7360713;19;20015;-61
2023/07/13 08:57:45;;;;;;;2.92;0.40;;;;;;;19.85;75.05;101205.84;7360263;19;20333;-61
2023/07/13 09:00:14;;;;;;;3.38;0.50;;;;;;;19.91;75.38;101203.16;7344142;19;20042;-62
2023/07/13 09:02:50;;;;;;;4.60;0.43;;;;;;;19.99;75.60;101202.16;7363038;19;20025;-62
2023/07/13 09:05:26;;;;;;;4.00;0.57;;;;;;;20.06;75.19;101208.34;7361757;19;20606;-61
2023/07/13 09:08:03;;;;;;;1.92;0.50;;;;;;;20.10;75.36;101198.88;7359488;19;20025;-61
2023/07/13 09:10:44;;;;;;;3.78;0.50;;;;;;;20.12;75.10;101212.00;7362333;19;20030;-61
2023/07/13 09:13:26;;;;;;;3.95;0.60;;;;;;;20.17;75.18;101204.19;7359186;19;20053;-62
2023/07/13 09:15:53;;;;;;;2.50;0.40;;;;;;;20.18;74.33;101198.66;7359473;19;20038;-62
2023/07/13 09:18:32;;;;;;;4.25;0.60;;;;;;;20.17;74.40;101206.88;7355342;19;20029;-62
2023/07/13 09:21:05;;;;;;;4.93;0.50;;;;;;;20.21;75.91;101208.13;7358951;19;20993;-61
2023/07/13 09:23:32;;;;;;;;;;;;;;;20.21;74.91;101211.63;7363353;19;20019;-62
2023/07/13 09:26:04;;;;;;;4.30;0.50;;;;;;;20.22;74.46;101207.06;7360741;19;20616;-61
2023/07/13 09:28:43;;;;;;;5.78;0.70;;;;;;;20.24;74.65;101211.19;7359130;19;20021;-63
2023/07/13 09:31:15;;;;;;;4.95;0.60;;;;;;;20.27;74.26;101205.44;7353814;19;20022;-62
2023/07/13 09:33:45;;;;;;;2.47;0.50;;;;;;;20.33;74.10;101215.31;7356172;19;20014;-63
2023/07/13 09:36:20;;;;;;;5.75;0.90;;;;;;;20.38;73.87;101206.69;7358259;19;20029;-61
2023/07/13 09:38:54;;;;;;;2.58;0.35;;;;;;;20.40;72.82;101209.97;7357868;19;21070;-61
2023/07/13 09:41:33;;;;;;;5.85;0.50;;;;;;;20.42;72.84;101214.06;7360933;19;20023;-61
2023/07/13 09:44:02;;;;;;;3.75;0.50;;;;;;;20.47;72.77;101206.25;7359065;19;20053;-61
2023/07/13 09:46:29;;;;;;;8.95;1.20;;;;;;;20.56;73.22;101214.06;7358171;19;20011;-62
2023/07/13 09:48:57;;;;;;;4.78;0.77;;;;;;;20.62;73.27;101214.03;7358265;19;20014;-61
2023/07/13 09:51:24;;;;;;;2.50;0.50;;;;;;;20.67;72.76;101211.56;7360335;19;20025;-62
2023/07/13 09:53:51;;;;;;;3.63;0.50;;;;;;;20.80;72.60;101210.72;7352922;19;20041;-61
2023/07/13 09:56:20;;;;;;;3.17;0.40;;;;;;;20.87;71.42;101220.38;7358883;19;20010;-60
2023/07/13 09:58:48;;;;;;;2.13;0.50;;;;;;;20.93;71.43;101211.50;7334781;19;20344;-62
2023/07/13 10:01:16;;;;;;;3.47;0.45;;;;;;;21.03;71.20;101210.25;7356157;19;20011;-62
2023/07/13 10:03:54;;;;;;;5.63;0.57;;;;;;;21.13;70.85;101206.06;7354844;19;20666;-62
2023/07/13 10:06:22;;;;;;;2.08;0.40;;;;;;;21.22;70.91;101212.88;7356027;19;20018;-62
2023/07/13 10:08:51;;;;;;;3.38;0.57;;;;;;;21.27;69.14;101212.22;7357754;19;20737;-62
2023/07/13 10:11:23;;;;;;;2.70;0.20;;;;;;;21.35;67.58;101209.28;7357713;19;20021;-62
2023/07/13 10:14:02;;;;;;;3.55;0.63;;;;;;;21.35;67.46;101214.66;7355290;19;20118;-61
2023/07/13 10:16:33;;;;;;;2.15;0.40;;;;;;;21.29;67.86;101210.97;7354629;19;20010;-63
2023/07/13 10:19:10;;;;;;;7.13;0.50;;;;;;;21.26;67.81;101211.41;7355859;19;20011;-61
2023/07/13 10:21:51;;;;;;;3.83;0.57;;;;;;;21.26;69.60;101221.28;7357888;19;20029;-61
2023/07/13 10:24:23;;;;;;;4.43;0.60;;;;;;;21.21;69.22;101227.28;7356242;19;20018;-61
2023/07/13 10:26:55;;;;;;;3.92;0.70;;;;;;;21.06;68.83;101226.69;7358698;19;20374;-61
2023/07/13 10:29:25;;;;;;;1.60;0.32;;;;;;;21.01;69.75;101229.19;7358772;19;20044;-62
2023/07/13 10:31:53;;;;;;;2.83;1.15;;;;;;;20.90;71.13;101227.97;7351057;19;20943;-62
2023/07/13 10:34:21;;;;;;;3.80;0.30;;;;;;;20.84;72.99;101217.28;7353561;19;20025;-62
2023/07/13 10:36:49;;;;;;;3.40;0.60;;;;;;;20.84;73.99;101212.75;7355713;19;20040;-60
2023/07/13 10:39:23;;;;;;;2.70;0.45;;;;;;;20.80;74.35;101211.53;7358215;19;20050;-61
2023/07/13 10:41:55;;;;;;;3.58;0.40;;;;;;;20.80;75.39;101208.03;7357387;19;20019;-62
2023/07/13 10:44:29;;;;;;;3.03;0.50;;;;;;;20.90;78.96;101208.41;7355872;19;20802;-61
2023/07/13 10:47:01;;;;;;;1.55;0.38;;;;;;;20.94;77.28;101212.31;7355102;19;20047;-61
2023/07/13 10:49:30;;;;;;;3.22;2.42;;;;;;;21.05;78.49;101205.47;7356396;19;20038;-61
2023/07/13 10:51:58;;;;;;;5.82;0.70;;;;;;;21.13;75.69;101210.63;7356944;19;20801;-62
2023/07/13 10:54:31;;;;;;;3.45;0.50;;;;;;;21.21;73.76;101203.19;7359952;19;20020;-61
2023/07/13 10:57:20;;;;;;;1.75;0.50;;;;;;;21.29;73.66;101205.59;7353510;19;20082;-61
2023/07/13 10:59:50;;;;;;;2.15;0.50;;;;;;;21.30;70.12;101209.94;7360286;19;20013;-61
2023/07/13 11:02:22;;;;;;;2.33;0.30;;;;;;;21.30;68.96;101207.25;7359680;19;20677;-61
2023/07/13 11:04:52;;;;;;;;;;;;;;;21.33;69.16;101211.38;7357900;19;20026;-62
2023/07/13 11:07:23;;;;;;;2.85;0.40;;;;;;;21.29;69.24;101212.81;7356053;19;19929;-62
2023/07/13 11:09:54;;;;;;;3.28;0.55;;;;;;;21.21;69.49;101218.44;7358163;19;20033;-61
2023/07/13 11:12:23;;;;;;;2.70;0.30;;;;;;;21.15;70.00;101214.75;7356398;19;20022;-63
2023/07/13 11:14:54;;;;;;;4.78;0.40;;;;;;;21.10;70.82;101211.84;7359054;19;20022;-61
2023/07/13 11:17:27;;;;;;;1.48;0.32;;;;;;;21.14;71.77;101212.25;7359711;19;20881;-60
2023/07/13 11:20:19;;;;;;;1.77;0.40;;;;;;;21.14;72.07;101213.09;7356896;19;20367;-62
2023/07/13 11:22:50;;;;;;;4.90;0.60;;;;;;;21.15;71.72;101204.03;7356731;19;20014;-61
2023/07/13 11:25:26;;;;;;;1.67;0.30;;;;;;;21.13;70.19;101207.94;7357758;19;20022;-61
2023/07/13 11:28:06;;;;;;;3.45;0.30;;;;;;;21.15;69.79;101220.09;7359527;19;20019;-61
2023/07/13 11:30:42;;;;;;;2.72;0.88;;;;;;;21.16;69.62;101210.22;7361441;19;20023;-61
2023/07/13 11:33:15;;;;;;;3.05;1.10;;;;;;;21.22;69.87;101204.84;7356468;19;20025;-62
2023/07/13 11:35:52;;;;;;;1.95;0.40;;;;;;;21.29;70.03;101200.25;7360314;19;20451;-61
2023/07/13 11:38:31;;;;;;;7.03;2.58;;;;;;;21.41;69.03;101200.41;7363502;19;20021;-62